createdAt,value
2023-11-25T00:01:36.971Z,1003.28
2023-11-25T00:02:36.569Z,1003.36
2023-11-25T00:04:33.188Z,1003.33
2023-11-25T00:05:32.487Z,1003.37
2023-11-25T00:07:27.694Z,1003.35
2023-11-25T00:08:27.457Z,1003.38
2023-11-25T00:10:23.964Z,1003.34
2023-11-25T00:11:28.471Z,1003.33
2023-11-25T00:13:17.798Z,1003.33
2023-11-25T00:14:17.678Z,1003.34
2023-11-25T00:16:14.755Z,1003.27
2023-11-25T00:17:13.639Z,1003.28
2023-11-25T00:19:10.137Z,1003.30
2023-11-25T00:20:09.939Z,1003.35
2023-11-25T00:22:06.236Z,1003.46
2023-11-25T00:23:06.105Z,1003.44
2023-11-25T00:25:01.545Z,1003.49
2023-11-25T00:26:01.088Z,1003.47
2023-11-25T00:27:56.493Z,1003.47
2023-11-25T00:28:56.305Z,1003.51
2023-11-25T00:30:51.340Z,1003.53
2023-11-25T00:31:51.013Z,1003.60
2023-11-25T00:33:47.289Z,1003.59
2023-11-25T00:34:47.158Z,1003.64
2023-11-25T00:36:44.482Z,1003.70
2023-11-25T00:37:43.524Z,1003.77
2023-11-25T00:39:39.964Z,1003.77
2023-11-25T00:40:39.652Z,1003.73
2023-11-25T00:42:36.005Z,1003.75
2023-11-25T00:43:35.782Z,1003.81
2023-11-25T00:45:32.256Z,1003.84
2023-11-25T00:46:32.053Z,1003.85
2023-11-25T00:48:27.348Z,1003.84
2023-11-25T00:49:27.096Z,1003.81
2023-11-25T00:51:21.565Z,1003.87
2023-11-25T00:52:21.223Z,1003.85
2023-11-25T00:54:18.533Z,1003.91
2023-11-25T00:55:17.238Z,1003.93
2023-11-25T00:57:13.918Z,1003.93
2023-11-25T00:58:13.759Z,1003.92
2023-11-25T01:00:09.970Z,1004.01
2023-11-25T01:01:09.612Z,1003.98
2023-11-25T01:03:05.354Z,1004.05
2023-11-25T01:04:05.004Z,1004.07
2023-11-25T01:05:59.630Z,1004.06
2023-11-25T01:07:00.284Z,1004.04
2023-11-25T01:08:54.931Z,1004.07
2023-11-25T01:09:54.516Z,1004.09
2023-11-25T01:11:50.129Z,1004.14
2023-11-25T01:12:49.673Z,1004.17
2023-11-25T01:14:45.193Z,1004.19
2023-11-25T01:15:44.860Z,1004.18
2023-11-25T01:17:41.401Z,1004.20
2023-11-25T01:18:41.223Z,1004.25
2023-11-25T01:20:38.281Z,1004.29
2023-11-25T01:21:38.720Z,1004.32
2023-11-25T01:23:31.945Z,1004.34
2023-11-25T01:24:33.008Z,1004.33
2023-11-25T01:26:27.754Z,1004.32
2023-11-25T01:27:26.717Z,1004.38
2023-11-25T01:29:21.652Z,1004.43
2023-11-25T01:30:20.692Z,1004.45
2023-11-25T01:32:16.120Z,1004.49
2023-11-25T01:33:15.877Z,1004.48
2023-11-25T01:35:11.261Z,1004.48
2023-11-25T01:36:10.972Z,1004.46
2023-11-25T01:38:08.630Z,1004.50
2023-11-25T01:39:08.348Z,1004.48
2023-11-25T01:41:05.210Z,1004.48
2023-11-25T01:42:04.752Z,1004.52
2023-11-25T01:43:59.828Z,1004.56
2023-11-25T01:44:59.724Z,1004.54
2023-11-25T01:46:54.888Z,1004.61
2023-11-25T01:47:54.498Z,1004.59
2023-11-25T01:49:50.295Z,1004.58
2023-11-25T01:50:49.874Z,1004.56
2023-11-25T01:52:45.967Z,1004.53
2023-11-25T01:53:45.888Z,1004.57
2023-11-25T01:55:48.927Z,1004.55
2023-11-25T01:56:40.921Z,1004.60
2023-11-25T01:58:37.436Z,1004.60
2023-11-25T01:59:36.998Z,1004.59
2023-11-25T02:01:32.517Z,1004.60
2023-11-25T02:02:32.201Z,1004.52
2023-11-25T02:04:28.633Z,1004.55
2023-11-25T02:05:28.301Z,1004.57
2023-11-25T02:07:24.225Z,1004.55
2023-11-25T02:08:23.916Z,1004.54
2023-11-25T02:10:19.599Z,1004.56
2023-11-25T02:11:19.045Z,1004.61
2023-11-25T02:13:14.590Z,1004.61
2023-11-25T02:14:14.353Z,1004.60
2023-11-25T02:16:09.955Z,1004.62
2023-11-25T02:17:09.540Z,1004.61
2023-11-25T02:19:05.865Z,1004.60
2023-11-25T02:20:05.734Z,1004.59
2023-11-25T02:22:00.664Z,1004.51
2023-11-25T02:23:00.316Z,1004.52
2023-11-25T02:24:56.802Z,1004.54
2023-11-25T02:25:56.664Z,1004.51
2023-11-25T02:27:53.002Z,1004.49
2023-11-25T02:28:52.962Z,1004.56
2023-11-25T02:30:49.254Z,1004.55
2023-11-25T02:31:48.819Z,1004.57
2023-11-25T02:33:44.483Z,1004.54
2023-11-25T02:34:43.995Z,1004.55
2023-11-25T02:36:39.788Z,1004.54
2023-11-25T02:37:39.282Z,1004.52
2023-11-25T02:39:34.575Z,1004.48
2023-11-25T02:40:34.715Z,1004.45
2023-11-25T02:42:29.934Z,1004.47
2023-11-25T02:43:29.709Z,1004.46
2023-11-25T02:45:25.759Z,1004.42
2023-11-25T02:46:25.629Z,1004.44
2023-11-25T02:48:21.972Z,1004.44
2023-11-25T02:49:21.708Z,1004.37
2023-11-25T02:51:18.482Z,1004.36
2023-11-25T02:52:18.172Z,1004.32
2023-11-25T02:54:14.122Z,1004.33
2023-11-25T02:55:13.310Z,1004.38
2023-11-25T02:58:25.758Z,1004.38
2023-11-25T02:59:25.199Z,1004.39
2023-11-25T03:01:21.606Z,1004.37
2023-11-25T03:02:21.588Z,1004.38
2023-11-25T03:04:17.906Z,1004.39
2023-11-25T03:05:17.329Z,1004.41
2023-11-25T03:07:13.318Z,1004.46
2023-11-25T03:08:12.383Z,1004.48
2023-11-25T03:10:08.061Z,1004.49
2023-11-25T03:11:07.897Z,1004.46
2023-11-25T03:13:03.861Z,1004.39
2023-11-25T03:14:03.190Z,1004.39
2023-11-25T03:15:58.756Z,1004.43
2023-11-25T03:16:58.449Z,1004.49
2023-11-25T03:18:54.715Z,1004.47
2023-11-25T03:19:54.655Z,1004.47
2023-11-25T03:21:49.997Z,1004.45
2023-11-25T03:22:49.642Z,1004.52
2023-11-25T03:24:45.824Z,1004.51
2023-11-25T03:25:45.714Z,1004.59
2023-11-25T03:27:42.185Z,1004.57
2023-11-25T03:28:42.018Z,1004.55
2023-11-25T03:30:37.298Z,1004.59
2023-11-25T03:31:37.120Z,1004.62
2023-11-25T03:33:32.136Z,1004.59
2023-11-25T03:34:32.089Z,1004.56
2023-11-25T03:36:28.365Z,1004.61
2023-11-25T03:37:28.367Z,1004.57
2023-11-25T03:39:24.889Z,1004.55
2023-11-25T03:40:24.761Z,1004.52
2023-11-25T03:42:20.747Z,1004.56
2023-11-25T03:43:20.725Z,1004.54
2023-11-25T03:45:17.064Z,1004.57
2023-11-25T03:46:16.862Z,1004.59
2023-11-25T03:48:13.323Z,1004.65
2023-11-25T03:49:12.978Z,1004.65
2023-11-25T03:51:08.347Z,1004.68
2023-11-25T03:52:08.128Z,1004.68
2023-11-25T03:54:02.989Z,1004.65
2023-11-25T03:55:02.646Z,1004.70
2023-11-25T03:56:59.026Z,1004.74
2023-11-25T03:57:58.789Z,1004.73
2023-11-25T03:59:55.073Z,1004.71
2023-11-25T04:00:55.103Z,1004.74
2023-11-25T04:02:51.002Z,1004.71
2023-11-25T04:03:50.675Z,1004.71
2023-11-25T04:05:46.932Z,1004.71
2023-11-25T04:06:46.821Z,1004.68
2023-11-25T04:08:43.220Z,1004.71
2023-11-25T04:09:42.941Z,1004.72
2023-11-25T04:11:39.982Z,1004.70
2023-11-25T04:12:39.866Z,1004.69
2023-11-25T04:14:34.764Z,1004.61
2023-11-25T04:15:34.581Z,1004.64
2023-11-25T04:17:31.012Z,1004.68
2023-11-25T04:18:30.806Z,1004.68
2023-11-25T04:20:27.030Z,1004.65
2023-11-25T04:21:25.910Z,1004.66
2023-11-25T04:23:22.500Z,1004.62
2023-11-25T04:24:22.033Z,1004.63
2023-11-25T04:26:18.366Z,1004.63
2023-11-25T04:27:18.203Z,1004.68
2023-11-25T04:29:13.625Z,1004.69
2023-11-25T04:30:13.424Z,1004.71
2023-11-25T04:32:09.871Z,1004.71
2023-11-25T04:33:09.670Z,1004.70
2023-11-25T04:35:04.995Z,1004.69
2023-11-25T04:36:04.829Z,1004.71
2023-11-25T04:38:01.203Z,1004.72
2023-11-25T04:39:01.093Z,1004.71
2023-11-25T04:40:57.349Z,1004.66
2023-11-25T04:41:57.166Z,1004.69
2023-11-25T04:43:53.624Z,1004.67
2023-11-25T04:44:53.472Z,1004.62
2023-11-25T04:46:49.923Z,1004.55
2023-11-25T04:47:49.673Z,1004.55
2023-11-25T04:49:46.087Z,1004.51
2023-11-25T04:50:46.452Z,1004.53
2023-11-25T04:52:41.465Z,1004.49
2023-11-25T04:53:41.152Z,1004.48
2023-11-25T04:55:45.841Z,1004.45
2023-11-25T04:56:37.274Z,1004.50
2023-11-25T04:58:32.569Z,1004.51
2023-11-25T04:59:32.410Z,1004.55
2023-11-25T05:01:29.220Z,1004.59
2023-11-25T05:02:28.925Z,1004.60
2023-11-25T05:04:24.612Z,1004.55
2023-11-25T05:05:24.177Z,1004.63
2023-11-25T05:07:20.409Z,1004.59
2023-11-25T05:08:20.240Z,1004.48
2023-11-25T05:10:15.758Z,1004.60
2023-11-25T05:11:15.523Z,1004.61
2023-11-25T05:13:12.116Z,1004.58
2023-11-25T05:14:11.656Z,1004.53
2023-11-25T05:16:08.032Z,1004.52
2023-11-25T05:17:07.932Z,1004.51
2023-11-25T05:19:01.750Z,1004.50
2023-11-25T05:20:01.565Z,1004.53
2023-11-25T05:21:56.741Z,1004.56
2023-11-25T05:22:56.687Z,1004.60
2023-11-25T05:24:50.913Z,1004.52
2023-11-25T05:25:50.829Z,1004.51
2023-11-25T05:27:46.187Z,1004.49
2023-11-25T05:28:46.048Z,1004.52
2023-11-25T05:30:41.148Z,1004.54
2023-11-25T05:31:41.151Z,1004.52
2023-11-25T05:33:37.340Z,1004.51
2023-11-25T05:34:37.251Z,1004.50
2023-11-25T05:36:32.459Z,1004.42
2023-11-25T05:37:32.210Z,1004.43
2023-11-25T05:39:27.503Z,1004.40
2023-11-25T05:40:27.356Z,1004.47
2023-11-25T05:42:22.767Z,1004.44
2023-11-25T05:43:22.619Z,1004.41
2023-11-25T05:45:19.968Z,1004.47
2023-11-25T05:46:19.537Z,1004.42
2023-11-25T05:48:16.092Z,1004.38
2023-11-25T05:49:15.844Z,1004.37
2023-11-25T05:51:12.185Z,1004.43
2023-11-25T05:52:12.143Z,1004.39
2023-11-25T05:54:06.316Z,1004.42
2023-11-25T05:55:06.121Z,1004.39
2023-11-25T05:57:02.455Z,1004.37
2023-11-25T05:58:02.365Z,1004.36
2023-11-25T05:59:57.886Z,1004.32
2023-11-25T06:00:57.563Z,1004.29
2023-11-25T06:02:54.316Z,1004.29
2023-11-25T06:03:53.867Z,1004.33
2023-11-25T06:05:50.304Z,1004.40
2023-11-25T06:06:49.985Z,1004.40
2023-11-25T06:08:47.274Z,1004.30
2023-11-25T06:09:46.744Z,1004.31
2023-11-25T06:11:42.337Z,1004.33
2023-11-25T06:12:41.918Z,1004.28
2023-11-25T06:14:38.464Z,1004.23
2023-11-25T06:15:38.276Z,1004.22
2023-11-25T06:17:33.905Z,1004.16
2023-11-25T06:18:33.643Z,1004.21
2023-11-25T06:20:29.852Z,1004.20
2023-11-25T06:21:29.770Z,1004.22
2023-11-25T06:23:26.295Z,1004.19
2023-11-25T06:24:26.079Z,1004.18
2023-11-25T06:26:22.390Z,1004.19
2023-11-25T06:27:22.200Z,1004.16
2023-11-25T06:29:17.518Z,1004.17
2023-11-25T06:30:17.687Z,1004.17
2023-11-25T06:32:14.311Z,1004.14
2023-11-25T06:33:14.152Z,1004.06
2023-11-25T06:35:10.475Z,1004.05
2023-11-25T06:36:10.366Z,1004.04
2023-11-25T06:38:07.012Z,1004.00
2023-11-25T06:39:06.365Z,1004.02
2023-11-25T06:41:02.937Z,1004.13
2023-11-25T06:42:02.510Z,1004.08
2023-11-25T06:43:57.980Z,1004.10
2023-11-25T06:44:57.559Z,1004.07
2023-11-25T06:46:54.175Z,1004.02
2023-11-25T06:47:54.061Z,1003.95
2023-11-25T06:49:49.300Z,1004.00
2023-11-25T06:50:49.074Z,1003.98
2023-11-25T06:52:43.490Z,1004.03
2023-11-25T06:53:43.386Z,1003.98
2023-11-25T06:55:38.692Z,1004.02
2023-11-25T06:56:38.549Z,1004.04
2023-11-25T06:58:33.953Z,1003.93
2023-11-25T06:59:33.736Z,1003.97
2023-11-25T07:01:30.326Z,1004.05
2023-11-25T07:02:30.177Z,1004.04
2023-11-25T07:04:25.382Z,1004.09
2023-11-25T07:05:25.157Z,1004.09
2023-11-25T07:07:21.478Z,1004.10
2023-11-25T07:08:21.319Z,1004.10
2023-11-25T07:10:17.957Z,1004.09
2023-11-25T07:11:17.557Z,1004.12
2023-11-25T07:13:11.544Z,1004.13
2023-11-25T07:14:11.388Z,1004.08
2023-11-25T07:16:06.520Z,1004.13
2023-11-25T07:17:06.554Z,1004.15
2023-11-25T07:19:52.438Z,1004.25
2023-11-25T07:20:55.016Z,1004.20
2023-11-25T07:22:47.580Z,1004.18
2023-11-25T07:23:47.440Z,1004.20
2023-11-25T07:25:41.687Z,1004.17
2023-11-25T07:26:41.581Z,1004.20
2023-11-25T07:28:36.098Z,1004.20
2023-11-25T07:29:35.892Z,1004.23
2023-11-25T07:31:31.257Z,1004.26
2023-11-25T07:32:31.046Z,1004.32
2023-11-25T07:34:25.356Z,1004.32
2023-11-25T07:35:25.149Z,1004.31
2023-11-25T07:37:20.693Z,1004.28
2023-11-25T07:38:20.559Z,1004.28
2023-11-25T07:40:15.045Z,1004.24
2023-11-25T07:41:14.721Z,1004.27
2023-11-25T07:43:10.162Z,1004.34
2023-11-25T07:44:10.095Z,1004.27
2023-11-25T07:46:04.498Z,1004.31
2023-11-25T07:47:04.346Z,1004.33
2023-11-25T07:49:00.716Z,1004.42
2023-11-25T07:50:00.596Z,1004.32
2023-11-25T07:51:56.023Z,1004.43
2023-11-25T07:52:55.948Z,1004.39
2023-11-25T07:54:52.123Z,1004.39
2023-11-25T07:57:08.388Z,1004.39
2023-11-25T07:58:08.270Z,1004.35
2023-11-25T08:01:20.398Z,1004.44
2023-11-25T08:02:20.163Z,1004.44
2023-11-25T08:04:16.538Z,1004.40
2023-11-25T08:05:16.226Z,1004.36
2023-11-25T08:07:12.658Z,1004.37
2023-11-25T08:08:12.394Z,1004.41
2023-11-25T08:10:07.612Z,1004.36
2023-11-25T08:11:07.479Z,1004.39
2023-11-25T08:13:01.816Z,1004.34
2023-11-25T08:14:01.554Z,1004.38
2023-11-25T08:15:57.857Z,1004.41
2023-11-25T08:16:57.764Z,1004.40
2023-11-25T08:18:54.104Z,1004.47
2023-11-25T08:19:54.078Z,1004.48
2023-11-25T08:21:49.359Z,1004.48
2023-11-25T08:22:49.402Z,1004.46
2023-11-25T08:24:44.624Z,1004.41
2023-11-25T08:25:45.222Z,1004.45
2023-11-25T08:27:39.868Z,1004.37
2023-11-25T08:28:39.873Z,1004.37
2023-11-25T08:30:35.231Z,1004.29
2023-11-25T08:31:35.298Z,1004.23
2023-11-25T08:33:29.574Z,1004.21
2023-11-25T08:34:29.580Z,1004.24
2023-11-25T08:36:25.947Z,1004.32
2023-11-25T08:37:25.958Z,1004.31
2023-11-25T08:39:20.026Z,1004.29
2023-11-25T08:40:20.019Z,1004.38
2023-11-25T08:42:14.081Z,1004.38
2023-11-25T08:43:14.057Z,1004.37
2023-11-25T08:45:08.212Z,1004.34
2023-11-25T08:46:08.239Z,1004.31
2023-11-25T08:48:02.282Z,1004.30
2023-11-25T08:49:02.244Z,1004.32
2023-11-25T08:50:56.480Z,1004.27
2023-11-25T08:51:56.468Z,1004.29
2023-11-25T08:53:50.543Z,1004.29
2023-11-25T08:54:50.544Z,1004.32
2023-11-25T08:56:44.801Z,1004.26
2023-11-25T08:57:45.453Z,1004.24
2023-11-25T08:59:39.560Z,1004.16
2023-11-25T09:00:39.530Z,1004.23
2023-11-25T09:02:34.032Z,1004.22
2023-11-25T09:03:34.040Z,1004.17
2023-11-25T09:05:27.989Z,1004.19
2023-11-25T09:06:27.963Z,1004.20
2023-11-25T09:08:22.105Z,1004.22
2023-11-25T09:09:22.097Z,1004.18
2023-11-25T09:11:17.215Z,1004.19
2023-11-25T09:12:17.190Z,1004.13
2023-11-25T09:14:10.962Z,1004.16
2023-11-25T09:15:10.940Z,1004.14
2023-11-25T09:17:05.104Z,1004.13
2023-11-25T09:18:05.418Z,1004.12
2023-11-25T09:20:00.458Z,1004.10
2023-11-25T09:21:00.381Z,1004.13
2023-11-25T09:22:56.548Z,1004.15
2023-11-25T09:23:56.527Z,1004.04
2023-11-25T09:25:50.699Z,1004.11
2023-11-25T09:26:50.587Z,1004.07
2023-11-25T09:28:45.103Z,1004.09
2023-11-25T09:29:45.049Z,1004.06
2023-11-25T09:31:40.387Z,1004.02
2023-11-25T09:32:40.484Z,1004.07
2023-11-25T09:34:35.746Z,1004.12
2023-11-25T09:35:35.677Z,1004.08
2023-11-25T09:37:30.031Z,1004.07
2023-11-25T09:38:29.954Z,1004.11
2023-11-25T09:40:24.389Z,1003.99
2023-11-25T09:41:24.366Z,1003.98
2023-11-25T09:43:19.574Z,1004.10
2023-11-25T09:44:19.516Z,1004.01
2023-11-25T09:46:14.842Z,1003.98
2023-11-25T09:47:14.750Z,1003.97
2023-11-25T09:49:09.240Z,1003.96
2023-11-25T09:50:09.226Z,1003.94
2023-11-25T09:52:04.600Z,1003.92
2023-11-25T09:53:04.573Z,1003.92
2023-11-25T09:55:01.205Z,1003.87
2023-11-25T09:56:01.198Z,1003.91
2023-11-25T09:57:55.406Z,1003.92
2023-11-25T09:58:55.423Z,1003.94
2023-11-25T10:00:50.939Z,1003.92
2023-11-25T10:01:50.937Z,1003.92
2023-11-25T10:03:45.319Z,1003.93
2023-11-25T10:04:45.261Z,1003.91
2023-11-25T10:06:39.613Z,1003.94
2023-11-25T10:07:39.595Z,1003.94
2023-11-25T10:09:35.689Z,1003.96
2023-11-25T10:10:35.739Z,1003.92
2023-11-25T10:12:29.825Z,1003.86
2023-11-25T10:13:29.799Z,1003.95
2023-11-25T10:15:24.245Z,1003.93
2023-11-25T10:16:24.206Z,1003.90
2023-11-25T10:18:20.316Z,1003.86
2023-11-25T10:19:20.397Z,1003.85
2023-11-25T10:21:14.611Z,1003.84
2023-11-25T10:22:14.586Z,1003.77
2023-11-25T10:24:08.958Z,1003.77
2023-11-25T10:25:08.930Z,1003.73
2023-11-25T10:27:03.255Z,1003.70
2023-11-25T10:28:03.085Z,1003.66
2023-11-25T10:29:58.464Z,1003.68
2023-11-25T10:30:58.448Z,1003.70
2023-11-25T10:32:54.426Z,1003.66
2023-11-25T10:33:53.939Z,1003.64
2023-11-25T10:35:49.276Z,1003.61
2023-11-25T10:36:49.049Z,1003.62
2023-11-25T10:38:44.839Z,1003.63
2023-11-25T10:39:44.674Z,1003.60
2023-11-25T10:41:40.393Z,1003.56
2023-11-25T10:42:40.086Z,1003.60
2023-11-25T10:44:37.287Z,1003.60
2023-11-25T10:45:37.362Z,1003.62
2023-11-25T10:47:35.162Z,1003.56
2023-11-25T10:48:34.013Z,1003.62
2023-11-25T10:50:29.048Z,1003.59
2023-11-25T10:52:45.739Z,1003.53
2023-11-25T10:53:44.277Z,1003.53
2023-11-25T10:55:40.667Z,1003.50
2023-11-25T10:56:41.299Z,1003.49
2023-11-25T10:58:35.971Z,1003.49
2023-11-25T10:59:35.917Z,1003.43
2023-11-25T11:01:31.758Z,1003.41
2023-11-25T11:02:31.755Z,1003.43
2023-11-25T11:04:25.442Z,1003.40
2023-11-25T11:05:25.467Z,1003.41
2023-11-25T11:07:20.457Z,1003.38
2023-11-25T11:08:20.817Z,1003.34
2023-11-25T11:10:15.926Z,1003.35
2023-11-25T11:11:15.737Z,1003.35
2023-11-25T11:13:12.257Z,1003.27
2023-11-25T11:14:12.197Z,1003.26
2023-11-25T11:16:07.478Z,1003.26
2023-11-25T11:17:07.256Z,1003.31
2023-11-25T11:19:23.244Z,1003.31
2023-11-25T11:20:02.780Z,1003.30
2023-11-25T11:21:57.400Z,1003.27
2023-11-25T11:22:57.267Z,1003.33
2023-11-25T11:24:52.457Z,1003.28
2023-11-25T11:25:52.404Z,1003.30
2023-11-25T11:29:04.455Z,1003.20
2023-11-25T11:30:04.072Z,1003.22
2023-11-25T11:31:59.563Z,1003.16
2023-11-25T11:32:59.338Z,1003.20
2023-11-25T11:34:53.395Z,1003.07
2023-11-25T11:35:53.301Z,1003.18
2023-11-25T11:37:48.765Z,1003.12
2023-11-25T11:38:48.677Z,1003.07
2023-11-25T11:40:44.410Z,1003.15
2023-11-25T11:41:44.302Z,1003.15
2023-11-25T11:43:39.698Z,1003.17
2023-11-25T11:44:39.559Z,1003.15
2023-11-25T11:46:35.141Z,1003.11
2023-11-25T11:47:34.964Z,1003.12
2023-11-25T11:49:30.568Z,1003.08
2023-11-25T11:50:30.378Z,1003.11
2023-11-25T11:52:25.696Z,1003.10
2023-11-25T11:53:25.518Z,1003.13
2023-11-25T11:55:21.100Z,1003.15
2023-11-25T11:56:20.933Z,1003.15
2023-11-25T11:58:17.423Z,1003.11
2023-11-25T11:59:17.232Z,1003.15
2023-11-25T12:01:12.414Z,1003.10
2023-11-25T12:02:12.359Z,1003.13
2023-11-25T12:04:07.646Z,1003.14
2023-11-25T12:05:07.472Z,1003.09
2023-11-25T12:07:02.107Z,1003.09
2023-11-25T12:08:02.063Z,1003.17
2023-11-25T12:09:57.277Z,1003.13
2023-11-25T12:10:57.374Z,1003.10
2023-11-25T12:12:51.291Z,1003.13
2023-11-25T12:13:51.341Z,1003.07
2023-11-25T12:15:46.539Z,1003.01
2023-11-25T12:16:46.532Z,1003.02
2023-11-25T12:18:42.628Z,1002.99
2023-11-25T12:19:42.545Z,1002.91
2023-11-25T12:21:37.736Z,1002.92
2023-11-25T12:22:37.690Z,1002.96
2023-11-25T12:24:32.813Z,1002.86
2023-11-25T12:25:32.799Z,1002.89
2023-11-25T12:27:27.932Z,1002.84
2023-11-25T12:28:27.853Z,1002.82
2023-11-25T12:30:22.039Z,1002.86
2023-11-25T12:31:22.043Z,1002.85
2023-11-25T12:33:17.265Z,1002.89
2023-11-25T12:34:17.191Z,1002.84
2023-11-25T12:36:12.320Z,1002.94
2023-11-25T12:37:12.264Z,1002.92
2023-11-25T12:39:07.586Z,1002.89
2023-11-25T12:40:07.562Z,1003.01
2023-11-25T12:42:01.535Z,1002.88
2023-11-25T12:43:01.508Z,1002.84
2023-11-25T12:44:55.758Z,1002.90
2023-11-25T12:45:55.642Z,1002.92
2023-11-25T12:47:51.295Z,1002.92
2023-11-25T12:48:51.218Z,1002.86
2023-11-25T12:50:45.509Z,1002.90
2023-11-25T12:51:45.457Z,1002.91
2023-11-25T12:53:40.851Z,1002.87
2023-11-25T12:54:40.787Z,1002.86
2023-11-25T12:56:35.061Z,1002.88
2023-11-25T12:57:35.014Z,1002.90
2023-11-25T12:59:29.549Z,1002.74
2023-11-25T13:00:29.396Z,1002.88
2023-11-25T13:02:25.334Z,1002.87
2023-11-25T13:03:25.344Z,1002.85
2023-11-25T13:05:21.875Z,1002.88
2023-11-25T13:06:21.833Z,1002.81
2023-11-25T13:08:17.042Z,1002.81
2023-11-25T13:09:16.975Z,1002.80
2023-11-25T13:11:11.241Z,1002.77
2023-11-25T13:12:11.168Z,1002.73
2023-11-25T13:14:06.127Z,1002.76
2023-11-25T13:15:05.964Z,1002.75
2023-11-25T13:17:00.234Z,1002.75
2023-11-25T13:18:00.141Z,1002.66
2023-11-25T13:19:55.587Z,1002.66
2023-11-25T13:20:55.425Z,1002.62
2023-11-25T13:22:50.681Z,1002.61
2023-11-25T13:23:50.582Z,1002.63
2023-11-25T13:25:45.985Z,1002.59
2023-11-25T13:26:45.780Z,1002.57
2023-11-25T13:28:41.899Z,1002.56
2023-11-25T13:29:41.835Z,1002.55
2023-11-25T13:31:36.949Z,1002.56
2023-11-25T13:32:37.006Z,1002.54
2023-11-25T13:34:31.221Z,1002.51
2023-11-25T13:35:31.146Z,1002.51
2023-11-25T13:37:26.587Z,1002.51
2023-11-25T13:38:26.455Z,1002.53
2023-11-25T13:40:21.600Z,1002.54
2023-11-25T13:41:21.548Z,1002.54
2023-11-25T13:43:16.653Z,1002.53
2023-11-25T13:44:16.610Z,1002.55
2023-11-25T13:46:11.857Z,1002.54
2023-11-25T13:47:11.797Z,1002.52
2023-11-25T13:49:06.029Z,1002.52
2023-11-25T13:50:05.885Z,1002.55
2023-11-25T13:52:00.224Z,1002.58
2023-11-25T13:53:00.089Z,1002.60
2023-11-25T13:54:55.481Z,1002.58
2023-11-25T13:55:55.396Z,1002.60
2023-11-25T13:59:07.133Z,1002.55
2023-11-25T14:00:07.066Z,1002.58
2023-11-25T14:02:01.616Z,1002.54
2023-11-25T14:03:01.509Z,1002.51
2023-11-25T14:04:55.590Z,1002.55
2023-11-25T14:05:55.448Z,1002.54
2023-11-25T14:07:51.749Z,1002.53
2023-11-25T14:08:51.667Z,1002.59
2023-11-25T14:10:46.014Z,1002.57
2023-11-25T14:11:45.783Z,1002.57
2023-11-25T14:13:39.769Z,1002.59
2023-11-25T14:14:39.629Z,1002.57
2023-11-25T14:16:34.025Z,1002.54
2023-11-25T14:17:34.180Z,1002.52
2023-11-25T14:19:29.158Z,1002.55
2023-11-25T14:20:29.021Z,1002.57
2023-11-25T14:22:23.354Z,1002.53
2023-11-25T14:23:23.144Z,1002.59
2023-11-25T14:25:17.092Z,1002.57
2023-11-25T14:26:17.063Z,1002.55
2023-11-25T14:28:13.356Z,1002.44
2023-11-25T14:29:13.260Z,1002.53
2023-11-25T14:32:25.189Z,1002.49
2023-11-25T14:33:25.217Z,1002.51
2023-11-25T14:35:20.721Z,1002.49
2023-11-25T14:36:20.156Z,1002.51
2023-11-25T14:38:14.690Z,1002.56
2023-11-25T14:39:14.665Z,1002.49
2023-11-25T14:41:12.764Z,1002.53
2023-11-25T14:42:12.302Z,1002.48
2023-11-25T14:44:06.633Z,1002.47
2023-11-25T14:45:06.114Z,1002.54
2023-11-25T14:52:27.794Z,1002.52
2023-11-25T14:59:53.173Z,1002.49
2023-11-25T15:00:51.811Z,1002.51
2023-11-25T15:02:50.147Z,1002.52
2023-11-25T15:03:48.834Z,1002.57
2023-11-25T15:05:44.583Z,1002.53
2023-11-25T15:06:43.372Z,1002.52
2023-11-25T15:08:41.748Z,1002.48
2023-11-25T15:09:41.249Z,1002.53
2023-11-25T15:11:36.783Z,1002.48
2023-11-25T15:12:35.732Z,1002.54
2023-11-25T15:14:31.480Z,1002.49
2023-11-25T15:15:31.768Z,1002.52
2023-11-25T15:17:27.740Z,1002.41
2023-11-25T15:18:26.878Z,1002.41
2023-11-25T15:20:22.428Z,1002.46
2023-11-25T15:21:21.254Z,1002.49
2023-11-25T15:23:18.397Z,1002.43
2023-11-25T15:24:16.566Z,1002.53
2023-11-25T15:26:13.355Z,1002.50
2023-11-25T15:27:12.947Z,1002.52
2023-11-25T15:29:07.855Z,1002.62
2023-11-25T15:30:08.434Z,1002.60
2023-11-25T15:32:02.418Z,1002.76
2023-11-25T15:33:02.670Z,1002.76
2023-11-25T15:34:59.592Z,1002.77
2023-11-25T15:36:00.098Z,1002.85
2023-11-25T15:37:56.307Z,1002.82
2023-11-25T15:38:56.281Z,1002.89
2023-11-25T16:58:00.465Z,1003.01
2023-11-25T16:59:00.737Z,1002.99
2023-11-25T17:00:56.711Z,1003.03
2023-11-25T17:01:56.625Z,1003.04
2023-11-25T17:03:54.104Z,1003.08
2023-11-25T17:04:52.956Z,1003.17
2023-11-25T17:06:49.513Z,1003.20
2023-11-25T17:07:49.237Z,1003.19
2023-11-25T17:09:43.578Z,1003.21
2023-11-25T17:10:43.496Z,1003.19
2023-11-25T17:12:40.930Z,1003.15
2023-11-25T17:13:40.864Z,1003.15
2023-11-25T17:15:34.657Z,1003.20
2023-11-25T17:16:35.597Z,1003.23
2023-11-25T17:18:31.455Z,1003.26
2023-11-25T17:19:30.497Z,1003.25
2023-11-25T17:21:27.142Z,1003.27
2023-11-25T17:22:27.561Z,1003.25
2023-11-25T17:24:20.090Z,1003.22
2023-11-25T17:25:21.104Z,1003.32
2023-11-25T17:27:18.640Z,1003.31
2023-11-25T17:28:16.904Z,1003.32
2023-11-25T17:30:14.809Z,1003.37
2023-11-25T17:31:14.690Z,1003.37
2023-11-25T17:33:10.015Z,1003.41
2023-11-25T17:34:10.064Z,1003.38
2023-11-25T17:36:05.387Z,1003.40
2023-11-25T17:37:05.043Z,1003.44
2023-11-25T17:39:01.600Z,1003.47
2023-11-25T17:41:55.622Z,1003.52
2023-11-25T17:42:55.119Z,1003.55
2023-11-25T17:44:51.206Z,1003.52
2023-11-25T17:45:49.985Z,1003.53
2023-11-25T17:47:46.646Z,1003.55
2023-11-25T17:48:46.537Z,1003.50
2023-11-25T17:50:41.760Z,1003.51
2023-11-25T17:51:41.329Z,1003.51
2023-11-25T17:53:36.134Z,1003.58
2023-11-25T17:54:36.734Z,1003.53
2023-11-25T17:56:32.103Z,1003.59
2023-11-25T17:57:32.274Z,1003.61
2023-11-25T17:59:28.279Z,1003.59
2023-11-25T18:00:28.395Z,1003.60
2023-11-25T18:02:24.620Z,1003.68
2023-11-25T18:03:24.988Z,1003.66
2023-11-25T18:05:19.562Z,1003.70
2023-11-25T18:06:19.929Z,1003.68
2023-11-25T18:08:15.593Z,1003.75
2023-11-25T18:09:16.430Z,1003.74
2023-11-25T18:11:10.972Z,1003.81
2023-11-25T18:12:12.077Z,1003.84
2023-11-25T18:14:07.544Z,1004.05
2023-11-25T18:15:07.681Z,1004.17
2023-11-25T18:17:03.645Z,1004.22
2023-11-25T18:18:03.377Z,1004.18
2023-11-25T18:19:59.477Z,1004.21
2023-11-25T18:20:58.373Z,1004.18
2023-11-25T18:22:55.345Z,1004.24
2023-11-25T18:23:55.459Z,1004.18
2023-11-25T18:25:51.691Z,1004.16
2023-11-25T18:26:51.377Z,1004.27
2023-11-25T18:28:47.160Z,1004.31
2023-11-25T18:29:46.602Z,1004.26
2023-11-25T18:31:42.158Z,1004.35
2023-11-25T18:32:42.040Z,1004.40
2023-11-25T18:34:37.314Z,1004.43
2023-11-25T18:35:38.336Z,1004.51
2023-11-25T18:37:32.587Z,1004.51
2023-11-25T18:38:32.695Z,1004.59
2023-11-25T18:40:28.986Z,1004.55
2023-11-25T18:41:29.227Z,1004.56
2023-11-25T18:43:25.005Z,1004.59
2023-11-25T18:44:25.464Z,1004.61
2023-11-25T18:46:20.519Z,1004.57
2023-11-25T18:47:19.651Z,1004.61
2023-11-25T18:49:16.955Z,1004.65
2023-11-25T18:50:16.965Z,1004.61
2023-11-25T18:52:12.655Z,1004.62
2023-11-25T18:53:12.537Z,1004.69
2023-11-25T18:55:08.569Z,1004.68
2023-11-25T18:56:08.714Z,1004.77
2023-11-25T18:58:03.651Z,1004.80
2023-11-25T18:59:01.953Z,1004.80
2023-11-25T19:00:58.745Z,1004.83
2023-11-25T19:01:58.678Z,1004.84
2023-11-25T19:04:45.596Z,1004.82
2023-11-25T19:05:46.269Z,1004.84
2023-11-25T19:07:41.707Z,1004.83
2023-11-25T19:08:41.326Z,1004.80
2023-11-25T19:10:36.355Z,1004.87
2023-11-25T19:11:35.617Z,1004.94
2023-11-25T19:17:28.401Z,1004.95
2023-11-25T19:29:25.215Z,1005.03
2023-11-25T19:30:24.929Z,1005.06
2023-11-25T19:32:21.821Z,1005.09
2023-11-25T19:33:20.604Z,1005.20
2023-11-25T19:35:15.944Z,1005.12